sensor_id;sensor_type;location;lat;lon;timestamp;temperature;humidity
18777;DHT22;9517;51.174;4.160;2023-07-20T00:01:53;17.20;99.90
18777;DHT22;9517;51.174;4.160;2023-07-20T00:04:20;17.20;99.90
18777;DHT22;9517;51.174;4.160;2023-07-20T00:06:47;17.20;99.90
18777;DHT22;9517;51.174;4.160;2023-07-20T00:09:14;17.10;99.90
18777;DHT22;9517;51.174;4.160;2023-07-20T00:11:49;17.10;99.90
18777;DHT22;9517;51.174;4.160;2023-07-20T00:14:16;17.00;99.90
18777;DHT22;9517;51.174;4.160;2023-07-20T00:16:44;16.90;99.90
18777;DHT22;9517;51.174;4.160;2023-07-20T00:19:12;16.90;99.90
18777;DHT22;9517;51.174;4.160;2023-07-20T00:21:39;17.00;99.90
18777;DHT22;9517;51.174;4.160;2023-07-20T00:24:08;16.90;99.90
18777;DHT22;9517;51.174;4.160;2023-07-20T00:26:35;16.90;99.90
18777;DHT22;9517;51.174;4.160;2023-07-20T00:29:04;17.00;99.90
18777;DHT22;9517;51.174;4.160;2023-07-20T00:31:31;17.10;99.90
18777;DHT22;9517;51.174;4.160;2023-07-20T00:33:58;17.10;99.90
18777;DHT22;9517;51.174;4.160;2023-07-20T00:36:25;17.00;99.90
18777;DHT22;9517;51.174;4.160;2023-07-20T00:38:52;16.90;99.90
18777;DHT22;9517;51.174;4.160;2023-07-20T00:41:19;16.80;99.90
18777;DHT22;9517;51.174;4.160;2023-07-20T00:43:46;16.70;99.90
18777;DHT22;9517;51.174;4.160;2023-07-20T00:46:15;16.70;99.90
18777;DHT22;9517;51.174;4.160;2023-07-20T00:48:42;16.60;99.90
18777;DHT22;9517;51.174;4.160;2023-07-20T00:51:10;16.70;99.90
18777;DHT22;9517;51.174;4.160;2023-07-20T00:53:38;16.70;99.90
18777;DHT22;9517;51.174;4.160;2023-07-20T00:56:05;16.60;99.90
18777;DHT22;9517;51.174;4.160;2023-07-20T00:58:33;16.60;99.90
18777;DHT22;9517;51.174;4.160;2023-07-20T01:01:01;16.60;99.90
18777;DHT22;9517;51.174;4.160;2023-07-20T01:03:29;16.60;99.90
18777;DHT22;9517;51.174;4.160;2023-07-20T01:06:03;16.60;99.90
18777;DHT22;9517;51.174;4.160;2023-07-20T01:08:36;16.60;99.90
18777;DHT22;9517;51.174;4.160;2023-07-20T01:11:10;16.60;99.90
18777;DHT22;9517;51.174;4.160;2023-07-20T01:13:39;16.50;99.90
18777;DHT22;9517;51.174;4.160;2023-07-20T01:16:07;16.40;99.90
18777;DHT22;9517;51.174;4.160;2023-07-20T01:18:35;16.40;99.90
18777;DHT22;9517;51.174;4.160;2023-07-20T01:21:08;16.40;99.90
18777;DHT22;9517;51.174;4.160;2023-07-20T01:24:12;16.40;99.90
18777;DHT22;9517;51.174;4.160;2023-07-20T01:30:03;16.30;99.90
18777;DHT22;9517;51.174;4.160;2023-07-20T01:32:35;16.20;99.90
18777;DHT22;9517;51.174;4.160;2023-07-20T01:35:05;16.10;99.90
18777;DHT22;9517;51.174;4.160;2023-07-20T01:37:34;16.00;99.90
18777;DHT22;9517;51.174;4.160;2023-07-20T01:40:01;16.00;99.90
18777;DHT22;9517;51.174;4.160;2023-07-20T01:42:29;16.00;99.90
18777;DHT22;9517;51.174;4.160;2023-07-20T01:44:56;15.90;99.90
18777;DHT22;9517;51.174;4.160;2023-07-20T01:47:23;15.90;99.90
18777;DHT22;9517;51.174;4.160;2023-07-20T01:49:52;15.90;99.90
18777;DHT22;9517;51.174;4.160;2023-07-20T01:52:19;15.90;99.90
18777;DHT22;9517;51.174;4.160;2023-07-20T01:54:46;16.00;99.90
18777;DHT22;9517;51.174;4.160;2023-07-20T01:57:13;15.90;99.90
18777;DHT22;9517;51.174;4.160;2023-07-20T01:59:40;15.90;99.90
18777;DHT22;9517;51.174;4.160;2023-07-20T02:02:08;15.90;99.90
18777;DHT22;9517;51.174;4.160;2023-07-20T02:04:35;15.90;99.90
18777;DHT22;9517;51.174;4.160;2023-07-20T02:07:04;15.80;99.90
18777;DHT22;9517;51.174;4.160;2023-07-20T02:09:31;15.80;99.90
18777;DHT22;9517;51.174;4.160;2023-07-20T02:11:58;15.80;99.90
18777;DHT22;9517;51.174;4.160;2023-07-20T02:14:25;15.70;99.90
18777;DHT22;9517;51.174;4.160;2023-07-20T02:16:52;15.70;99.90
18777;DHT22;9517;51.174;4.160;2023-07-20T02:19:25;15.60;99.90
18777;DHT22;9517;51.174;4.160;2023-07-20T02:21:52;15.70;99.90
18777;DHT22;9517;51.174;4.160;2023-07-20T02:24:21;15.70;99.90
18777;DHT22;9517;51.174;4.160;2023-07-20T02:26:48;15.70;99.90
18777;DHT22;9517;51.174;4.160;2023-07-20T02:29:15;15.70;99.90
18777;DHT22;9517;51.174;4.160;2023-07-20T02:31:42;15.70;99.90
18777;DHT22;9517;51.174;4.160;2023-07-20T02:34:09;15.70;99.90
18777;DHT22;9517;51.174;4.160;2023-07-20T02:36:36;15.80;99.90
18777;DHT22;9517;51.174;4.160;2023-07-20T02:39:04;15.90;99.90
18777;DHT22;9517;51.174;4.160;2023-07-20T02:41:34;15.90;99.90
18777;DHT22;9517;51.174;4.160;2023-07-20T02:44:02;16.00;99.90
18777;DHT22;9517;51.174;4.160;2023-07-20T02:46:29;16.00;99.90
18777;DHT22;9517;51.174;4.160;2023-07-20T02:48:56;16.10;99.90
18777;DHT22;9517;51.174;4.160;2023-07-20T02:51:23;16.10;99.90
18777;DHT22;9517;51.174;4.160;2023-07-20T02:53:51;16.20;99.90
18777;DHT22;9517;51.174;4.160;2023-07-20T02:56:18;16.20;99.90
18777;DHT22;9517;51.174;4.160;2023-07-20T02:58:46;16.20;99.90
18777;DHT22;9517;51.174;4.160;2023-07-20T03:01:13;16.30;99.90
18777;DHT22;9517;51.174;4.160;2023-07-20T03:03:41;16.20;99.90
18777;DHT22;9517;51.174;4.160;2023-07-20T03:06:12;16.30;99.90
18777;DHT22;9517;51.174;4.160;2023-07-20T03:08:40;16.30;99.90
18777;DHT22;9517;51.174;4.160;2023-07-20T03:11:13;16.30;99.90
18777;DHT22;9517;51.174;4.160;2023-07-20T03:13:40;16.30;99.90
18777;DHT22;9517;51.174;4.160;2023-07-20T03:16:10;16.30;99.90
18777;DHT22;9517;51.174;4.160;2023-07-20T03:18:38;16.30;99.90
18777;DHT22;9517;51.174;4.160;2023-07-20T03:21:05;16.30;99.90
18777;DHT22;9517;51.174;4.160;2023-07-20T03:23:33;16.30;99.90
18777;DHT22;9517;51.174;4.160;2023-07-20T03:26:00;16.30;99.90
18777;DHT22;9517;51.174;4.160;2023-07-20T03:28:28;16.40;99.90
18777;DHT22;9517;51.174;4.160;2023-07-20T03:30:55;16.30;99.90
18777;DHT22;9517;51.174;4.160;2023-07-20T03:33:27;16.30;99.90
18777;DHT22;9517;51.174;4.160;2023-07-20T03:36:06;16.40;99.90
18777;DHT22;9517;51.174;4.160;2023-07-20T03:38:33;16.50;99.90
18777;DHT22;9517;51.174;4.160;2023-07-20T03:41:01;16.50;99.90
18777;DHT22;9517;51.174;4.160;2023-07-20T03:43:28;16.50;99.90
18777;DHT22;9517;51.174;4.160;2023-07-20T03:45:55;16.40;99.90
18777;DHT22;9517;51.174;4.160;2023-07-20T03:48:24;16.40;99.90
18777;DHT22;9517;51.174;4.160;2023-07-20T03:50:54;16.50;99.90
18777;DHT22;9517;51.174;4.160;2023-07-20T03:53:21;16.50;99.90
18777;DHT22;9517;51.174;4.160;2023-07-20T03:55:49;16.40;99.90
18777;DHT22;9517;51.174;4.160;2023-07-20T03:58:18;16.50;99.90
18777;DHT22;9517;51.174;4.160;2023-07-20T04:00:46;16.50;99.90
18777;DHT22;9517;51.174;4.160;2023-07-20T04:03:13;16.30;99.90
18777;DHT22;9517;51.174;4.160;2023-07-20T04:05:43;16.10;99.90
18777;DHT22;9517;51.174;4.160;2023-07-20T04:08:10;16.00;99.90
18777;DHT22;9517;51.174;4.160;2023-07-20T04:10:38;16.00;99.90
18777;DHT22;9517;51.174;4.160;2023-07-20T04:13:05;16.10;99.90
18777;DHT22;9517;51.174;4.160;2023-07-20T04:15:32;16.20;99.90
18777;DHT22;9517;51.174;4.160;2023-07-20T04:18:00;16.40;99.90
18777;DHT22;9517;51.174;4.160;2023-07-20T04:20:27;16.30;99.90
18777;DHT22;9517;51.174;4.160;2023-07-20T04:22:56;16.40;99.90
18777;DHT22;9517;51.174;4.160;2023-07-20T04:25:23;16.50;99.90
18777;DHT22;9517;51.174;4.160;2023-07-20T04:27:50;16.60;99.90
18777;DHT22;9517;51.174;4.160;2023-07-20T04:30:19;16.60;99.90
18777;DHT22;9517;51.174;4.160;2023-07-20T04:32:48;16.80;99.90
18777;DHT22;9517;51.174;4.160;2023-07-20T04:35:44;16.60;99.90
18777;DHT22;9517;51.174;4.160;2023-07-20T04:38:11;16.40;99.90
18777;DHT22;9517;51.174;4.160;2023-07-20T04:40:39;16.40;99.90
18777;DHT22;9517;51.174;4.160;2023-07-20T04:43:06;16.40;99.90
18777;DHT22;9517;51.174;4.160;2023-07-20T04:45:33;16.50;99.90
18777;DHT22;9517;51.174;4.160;2023-07-20T04:48:00;16.60;99.90
18777;DHT22;9517;51.174;4.160;2023-07-20T04:50:27;16.70;99.90
18777;DHT22;9517;51.174;4.160;2023-07-20T04:52:54;16.70;99.90
18777;DHT22;9517;51.174;4.160;2023-07-20T04:55:22;16.70;99.90
18777;DHT22;9517;51.174;4.160;2023-07-20T04:57:49;16.90;99.90
18777;DHT22;9517;51.174;4.160;2023-07-20T05:00:17;16.90;99.90
18777;DHT22;9517;51.174;4.160;2023-07-20T05:02:45;17.00;99.90
18777;DHT22;9517;51.174;4.160;2023-07-20T05:05:15;17.10;99.90
18777;DHT22;9517;51.174;4.160;2023-07-20T05:07:42;17.10;99.90
18777;DHT22;9517;51.174;4.160;2023-07-20T05:10:09;17.10;99.90
18777;DHT22;9517;51.174;4.160;2023-07-20T05:12:38;17.10;99.90
18777;DHT22;9517;51.174;4.160;2023-07-20T05:15:05;17.20;99.90
18777;DHT22;9517;51.174;4.160;2023-07-20T05:17:32;17.50;99.90
18777;DHT22;9517;51.174;4.160;2023-07-20T05:20:00;17.60;99.90
18777;DHT22;9517;51.174;4.160;2023-07-20T05:22:27;17.70;99.90
18777;DHT22;9517;51.174;4.160;2023-07-20T05:24:54;17.60;99.90
18777;DHT22;9517;51.174;4.160;2023-07-20T05:27:21;17.60;99.90
18777;DHT22;9517;51.174;4.160;2023-07-20T05:29:50;17.50;99.90
18777;DHT22;9517;51.174;4.160;2023-07-20T05:32:17;17.40;99.90
18777;DHT22;9517;51.174;4.160;2023-07-20T05:34:44;17.40;99.90
18777;DHT22;9517;51.174;4.160;2023-07-20T05:37:11;17.40;99.90
18777;DHT22;9517;51.174;4.160;2023-07-20T05:39:38;17.60;99.90
18777;DHT22;9517;51.174;4.160;2023-07-20T05:42:05;17.70;99.90
18777;DHT22;9517;51.174;4.160;2023-07-20T05:44:32;17.70;99.90
18777;DHT22;9517;51.174;4.160;2023-07-20T05:47:01;18.00;99.90
18777;DHT22;9517;51.174;4.160;2023-07-20T05:49:29;18.00;99.90
18777;DHT22;9517;51.174;4.160;2023-07-20T05:51:56;18.20;99.90
18777;DHT22;9517;51.174;4.160;2023-07-20T05:54:24;18.40;99.90
18777;DHT22;9517;51.174;4.160;2023-07-20T05:56:51;18.60;99.90
18777;DHT22;9517;51.174;4.160;2023-07-20T05:59:19;18.80;99.90
18777;DHT22;9517;51.174;4.160;2023-07-20T06:01:46;18.60;99.90
18777;DHT22;9517;51.174;4.160;2023-07-20T06:04:15;18.40;99.90
18777;DHT22;9517;51.174;4.160;2023-07-20T06:06:43;18.40;99.90
18777;DHT22;9517;51.174;4.160;2023-07-20T06:09:10;18.20;99.90
18777;DHT22;9517;51.174;4.160;2023-07-20T06:11:37;18.10;99.90
18777;DHT22;9517;51.174;4.160;2023-07-20T06:14:05;18.10;99.90
18777;DHT22;9517;51.174;4.160;2023-07-20T06:16:32;18.40;99.90
18777;DHT22;9517;51.174;4.160;2023-07-20T06:19:00;18.50;99.90
18777;DHT22;9517;51.174;4.160;2023-07-20T06:21:28;18.90;99.90
18777;DHT22;9517;51.174;4.160;2023-07-20T06:23:55;19.20;99.90
18777;DHT22;9517;51.174;4.160;2023-07-20T06:26:22;19.60;99.90
18777;DHT22;9517;51.174;4.160;2023-07-20T06:28:49;19.40;99.90
18777;DHT22;9517;51.174;4.160;2023-07-20T06:31:16;19.50;99.90
18777;DHT22;9517;51.174;4.160;2023-07-20T06:33:43;20.10;99.90
18777;DHT22;9517;51.174;4.160;2023-07-20T06:36:10;20.40;99.90
18777;DHT22;9517;51.174;4.160;2023-07-20T06:38:39;20.50;99.90
18777;DHT22;9517;51.174;4.160;2023-07-20T06:41:06;20.70;99.90
18777;DHT22;9517;51.174;4.160;2023-07-20T06:43:33;20.80;99.90
18777;DHT22;9517;51.174;4.160;2023-07-20T06:46:00;20.60;99.90
18777;DHT22;9517;51.174;4.160;2023-07-20T06:48:27;20.70;99.90
18777;DHT22;9517;51.174;4.160;2023-07-20T06:50:55;20.70;99.90
18777;DHT22;9517;51.174;4.160;2023-07-20T06:53:22;20.90;99.90
18777;DHT22;9517;51.174;4.160;2023-07-20T06:55:50;21.00;99.90
18777;DHT22;9517;51.174;4.160;2023-07-20T06:58:17;21.20;99.90
18777;DHT22;9517;51.174;4.160;2023-07-20T07:00:45;21.00;99.90
18777;DHT22;9517;51.174;4.160;2023-07-20T07:03:12;21.10;99.90
18777;DHT22;9517;51.174;4.160;2023-07-20T07:05:39;21.00;99.90
18777;DHT22;9517;51.174;4.160;2023-07-20T07:08:06;20.90;99.90
18777;DHT22;9517;51.174;4.160;2023-07-20T07:10:34;20.80;99.90
18777;DHT22;9517;51.174;4.160;2023-07-20T07:13:03;21.00;99.90
18777;DHT22;9517;51.174;4.160;2023-07-20T07:15:30;21.40;99.90
18777;DHT22;9517;51.174;4.160;2023-07-20T07:17:57;21.50;99.90
18777;DHT22;9517;51.174;4.160;2023-07-20T07:20:25;21.50;99.90
18777;DHT22;9517;51.174;4.160;2023-07-20T07:22:53;21.20;99.90
18777;DHT22;9517;51.174;4.160;2023-07-20T07:25:21;21.10;99.90
18777;DHT22;9517;51.174;4.160;2023-07-20T07:27:48;21.70;99.90
18777;DHT22;9517;51.174;4.160;2023-07-20T07:30:17;21.30;99.90
18777;DHT22;9517;51.174;4.160;2023-07-20T07:32:44;21.20;99.90
18777;DHT22;9517;51.174;4.160;2023-07-20T07:35:11;21.40;99.90
18777;DHT22;9517;51.174;4.160;2023-07-20T07:37:38;21.80;99.90
18777;DHT22;9517;51.174;4.160;2023-07-20T07:40:07;22.00;99.90
18777;DHT22;9517;51.174;4.160;2023-07-20T07:42:34;22.20;99.90
18777;DHT22;9517;51.174;4.160;2023-07-20T07:45:02;22.20;99.90
18777;DHT22;9517;51.174;4.160;2023-07-20T07:47:30;22.20;99.90
18777;DHT22;9517;51.174;4.160;2023-07-20T07:49:57;22.80;99.90
18777;DHT22;9517;51.174;4.160;2023-07-20T07:52:24;23.20;99.90
18777;DHT22;9517;51.174;4.160;2023-07-20T07:54:51;23.40;99.90
18777;DHT22;9517;51.174;4.160;2023-07-20T07:57:18;23.80;99.90
18777;DHT22;9517;51.174;4.160;2023-07-20T07:59:45;24.00;99.90
18777;DHT22;9517;51.174;4.160;2023-07-20T08:02:13;23.90;99.90
18777;DHT22;9517;51.174;4.160;2023-07-20T08:04:41;23.90;99.90
18777;DHT22;9517;51.174;4.160;2023-07-20T08:07:08;23.40;99.90
18777;DHT22;9517;51.174;4.160;2023-07-20T08:09:35;23.00;99.90
18777;DHT22;9517;51.174;4.160;2023-07-20T08:12:03;23.40;99.90
18777;DHT22;9517;51.174;4.160;2023-07-20T08:14:31;23.80;99.90
18777;DHT22;9517;51.174;4.160;2023-07-20T08:16:58;24.10;99.90
18777;DHT22;9517;51.174;4.160;2023-07-20T08:19:25;24.10;99.90
18777;DHT22;9517;51.174;4.160;2023-07-20T08:21:53;24.40;99.90
18777;DHT22;9517;51.174;4.160;2023-07-20T08:24:20;24.50;99.90
18777;DHT22;9517;51.174;4.160;2023-07-20T08:26:48;24.70;99.90
18777;DHT22;9517;51.174;4.160;2023-07-20T08:29:15;25.30;99.90
18777;DHT22;9517;51.174;4.160;2023-07-20T08:31:42;25.20;99.90
18777;DHT22;9517;51.174;4.160;2023-07-20T08:34:09;25.30;99.90
18777;DHT22;9517;51.174;4.160;2023-07-20T08:36:36;25.40;99.90
18777;DHT22;9517;51.174;4.160;2023-07-20T08:39:05;24.70;99.90
18777;DHT22;9517;51.174;4.160;2023-07-20T08:41:34;24.60;99.90
18777;DHT22;9517;51.174;4.160;2023-07-20T08:44:03;25.00;99.90
18777;DHT22;9517;51.174;4.160;2023-07-20T08:46:30;25.20;99.90
18777;DHT22;9517;51.174;4.160;2023-07-20T08:48:58;24.90;99.90
18777;DHT22;9517;51.174;4.160;2023-07-20T08:51:28;25.10;99.90
18777;DHT22;9517;51.174;4.160;2023-07-20T08:53:56;24.60;99.90
18777;DHT22;9517;51.174;4.160;2023-07-20T08:56:25;24.50;99.90
18777;DHT22;9517;51.174;4.160;2023-07-20T08:58:53;24.70;99.90
18777;DHT22;9517;51.174;4.160;2023-07-20T09:01:22;24.30;99.90
18777;DHT22;9517;51.174;4.160;2023-07-20T09:03:49;24.20;99.90
18777;DHT22;9517;51.174;4.160;2023-07-20T09:06:16;24.70;99.90
18777;DHT22;9517;51.174;4.160;2023-07-20T09:08:43;24.50;99.90
18777;DHT22;9517;51.174;4.160;2023-07-20T09:11:12;24.30;99.90
18777;DHT22;9517;51.174;4.160;2023-07-20T09:13:42;24.40;99.90
18777;DHT22;9517;51.174;4.160;2023-07-20T09:16:10;24.60;99.90
18777;DHT22;9517;51.174;4.160;2023-07-20T09:18:40;24.80;99.90
18777;DHT22;9517;51.174;4.160;2023-07-20T09:21:07;24.90;99.90
18777;DHT22;9517;51.174;4.160;2023-07-20T09:23:35;24.50;99.90
18777;DHT22;9517;51.174;4.160;2023-07-20T09:26:09;24.70;99.90
18777;DHT22;9517;51.174;4.160;2023-07-20T09:28:43;25.40;99.90
18777;DHT22;9517;51.174;4.160;2023-07-20T09:31:15;25.30;99.90
18777;DHT22;9517;51.174;4.160;2023-07-20T09:33:43;25.20;99.90
18777;DHT22;9517;51.174;4.160;2023-07-20T09:36:10;25.00;99.90
18777;DHT22;9517;51.174;4.160;2023-07-20T09:38:38;25.10;99.90
18777;DHT22;9517;51.174;4.160;2023-07-20T09:41:05;24.70;99.90
18777;DHT22;9517;51.174;4.160;2023-07-20T09:43:34;24.30;99.90
18777;DHT22;9517;51.174;4.160;2023-07-20T09:46:02;24.60;99.90
18777;DHT22;9517;51.174;4.160;2023-07-20T09:48:29;24.30;99.90
18777;DHT22;9517;51.174;4.160;2023-07-20T09:50:57;24.40;99.90
18777;DHT22;9517;51.174;4.160;2023-07-20T09:53:25;24.70;99.90
18777;DHT22;9517;51.174;4.160;2023-07-20T09:55:53;25.30;99.90
18777;DHT22;9517;51.174;4.160;2023-07-20T09:58:21;26.40;99.90
18777;DHT22;9517;51.174;4.160;2023-07-20T10:00:51;25.90;99.90
18777;DHT22;9517;51.174;4.160;2023-07-20T10:03:20;25.80;99.90
18777;DHT22;9517;51.174;4.160;2023-07-20T10:05:51;25.50;99.90
18777;DHT22;9517;51.174;4.160;2023-07-20T10:08:19;25.30;99.90
18777;DHT22;9517;51.174;4.160;2023-07-20T10:10:48;25.80;99.90
18777;DHT22;9517;51.174;4.160;2023-07-20T10:13:18;26.10;99.90
18777;DHT22;9517;51.174;4.160;2023-07-20T10:15:53;26.20;99.90
18777;DHT22;9517;51.174;4.160;2023-07-20T10:18:28;26.10;99.90
18777;DHT22;9517;51.174;4.160;2023-07-20T10:20:56;26.20;99.90
18777;DHT22;9517;51.174;4.160;2023-07-20T10:23:26;26.40;99.90
18777;DHT22;9517;51.174;4.160;2023-07-20T10:25:55;26.20;99.90
18777;DHT22;9517;51.174;4.160;2023-07-20T10:28:23;25.70;99.90
18777;DHT22;9517;51.174;4.160;2023-07-20T10:30:51;25.20;99.90
18777;DHT22;9517;51.174;4.160;2023-07-20T10:33:18;25.30;99.90
18777;DHT22;9517;51.174;4.160;2023-07-20T10:35:53;25.60;99.90
18777;DHT22;9517;51.174;4.160;2023-07-20T10:38:20;26.00;99.90
18777;DHT22;9517;51.174;4.160;2023-07-20T10:40:54;26.20;99.90
18777;DHT22;9517;51.174;4.160;2023-07-20T10:43:21;26.60;99.90
18777;DHT22;9517;51.174;4.160;2023-07-20T10:45:50;26.70;99.90
18777;DHT22;9517;51.174;4.160;2023-07-20T10:48:18;26.20;99.90
18777;DHT22;9517;51.174;4.160;2023-07-20T10:53:36;26.30;99.90
18777;DHT22;9517;51.174;4.160;2023-07-20T10:56:07;28.00;99.90
18777;DHT22;9517;51.174;4.160;2023-07-20T10:58:34;28.90;99.90
18777;DHT22;9517;51.174;4.160;2023-07-20T11:01:03;28.20;99.90
18777;DHT22;9517;51.174;4.160;2023-07-20T11:03:33;28.20;99.90
18777;DHT22;9517;51.174;4.160;2023-07-20T11:06:31;27.70;99.90
18777;DHT22;9517;51.174;4.160;2023-07-20T11:09:09;27.30;99.90
18777;DHT22;9517;51.174;4.160;2023-07-20T11:11:41;28.30;99.90
18777;DHT22;9517;51.174;4.160;2023-07-20T11:14:09;28.60;99.90
18777;DHT22;9517;51.174;4.160;2023-07-20T11:16:40;27.40;99.90
18777;DHT22;9517;51.174;4.160;2023-07-20T11:19:17;26.80;99.90
18777;DHT22;9517;51.174;4.160;2023-07-20T11:21:45;26.90;99.90
18777;DHT22;9517;51.174;4.160;2023-07-20T11:24:14;26.20;99.90
18777;DHT22;9517;51.174;4.160;2023-07-20T11:26:42;25.60;99.90
18777;DHT22;9517;51.174;4.160;2023-07-20T11:29:10;25.40;99.90
18777;DHT22;9517;51.174;4.160;2023-07-20T11:31:38;24.60;99.90
18777;DHT22;9517;51.174;4.160;2023-07-20T11:34:05;24.80;99.90
18777;DHT22;9517;51.174;4.160;2023-07-20T11:36:33;25.70;99.90
18777;DHT22;9517;51.174;4.160;2023-07-20T11:39:01;26.40;99.90
18777;DHT22;9517;51.174;4.160;2023-07-20T11:41:32;26.00;99.90
18777;DHT22;9517;51.174;4.160;2023-07-20T11:43:59;25.50;99.90
18777;DHT22;9517;51.174;4.160;2023-07-20T11:46:27;24.80;99.90
18777;DHT22;9517;51.174;4.160;2023-07-20T11:48:59;24.60;99.90
18777;DHT22;9517;51.174;4.160;2023-07-20T11:51:27;24.60;99.90
18777;DHT22;9517;51.174;4.160;2023-07-20T11:53:55;24.50;99.90
18777;DHT22;9517;51.174;4.160;2023-07-20T11:56:23;24.40;99.90
18777;DHT22;9517;51.174;4.160;2023-07-20T11:58:54;24.70;99.90
18777;DHT22;9517;51.174;4.160;2023-07-20T12:01:25;24.80;99.90
18777;DHT22;9517;51.174;4.160;2023-07-20T12:03:55;24.80;99.90
18777;DHT22;9517;51.174;4.160;2023-07-20T12:06:24;24.50;99.90
18777;DHT22;9517;51.174;4.160;2023-07-20T12:08:55;24.00;99.90
18777;DHT22;9517;51.174;4.160;2023-07-20T12:11:34;24.20;99.90
18777;DHT22;9517;51.174;4.160;2023-07-20T12:14:03;24.70;99.90
18777;DHT22;9517;51.174;4.160;2023-07-20T12:16:30;24.90;99.90
18777;DHT22;9517;51.174;4.160;2023-07-20T12:19:01;25.10;99.90
18777;DHT22;9517;51.174;4.160;2023-07-20T12:21:29;24.40;99.90
18777;DHT22;9517;51.174;4.160;2023-07-20T12:23:57;24.20;99.90
18777;DHT22;9517;51.174;4.160;2023-07-20T12:26:29;24.30;99.90
18777;DHT22;9517;51.174;4.160;2023-07-20T12:28:56;24.30;99.90
18777;DHT22;9517;51.174;4.160;2023-07-20T12:31:25;24.50;99.90
18777;DHT22;9517;51.174;4.160;2023-07-20T12:33:53;24.20;99.90
18777;DHT22;9517;51.174;4.160;2023-07-20T12:36:22;24.00;99.90
18777;DHT22;9517;51.174;4.160;2023-07-20T12:38:49;23.80;99.90
18777;DHT22;9517;51.174;4.160;2023-07-20T12:41:16;23.80;99.90
18777;DHT22;9517;51.174;4.160;2023-07-20T12:43:44;23.70;99.90
18777;DHT22;9517;51.174;4.160;2023-07-20T12:46:13;23.20;99.90
18777;DHT22;9517;51.174;4.160;2023-07-20T12:48:41;23.00;99.90
18777;DHT22;9517;51.174;4.160;2023-07-20T12:51:09;22.90;99.90
18777;DHT22;9517;51.174;4.160;2023-07-20T12:53:37;22.80;99.90
18777;DHT22;9517;51.174;4.160;2023-07-20T12:56:05;22.90;99.90
18777;DHT22;9517;51.174;4.160;2023-07-20T12:58:32;23.00;99.90
18777;DHT22;9517;51.174;4.160;2023-07-20T13:00:59;23.00;99.90
18777;DHT22;9517;51.174;4.160;2023-07-20T13:03:26;23.00;99.90
18777;DHT22;9517;51.174;4.160;2023-07-20T13:05:55;23.00;99.90
18777;DHT22;9517;51.174;4.160;2023-07-20T13:08:22;23.10;99.90
18777;DHT22;9517;51.174;4.160;2023-07-20T13:10:51;22.90;99.90
18777;DHT22;9517;51.174;4.160;2023-07-20T13:13:18;23.10;99.90
18777;DHT22;9517;51.174;4.160;2023-07-20T13:15:45;23.00;99.90
18777;DHT22;9517;51.174;4.160;2023-07-20T13:18:13;23.20;99.90
18777;DHT22;9517;51.174;4.160;2023-07-20T13:20:40;23.60;99.90
18777;DHT22;9517;51.174;4.160;2023-07-20T13:23:09;23.80;99.90
18777;DHT22;9517;51.174;4.160;2023-07-20T13:25:36;24.30;99.90
18777;DHT22;9517;51.174;4.160;2023-07-20T13:28:05;25.00;99.90
18777;DHT22;9517;51.174;4.160;2023-07-20T13:30:32;25.70;99.90
18777;DHT22;9517;51.174;4.160;2023-07-20T13:32:59;26.40;99.90
18777;DHT22;9517;51.174;4.160;2023-07-20T13:35:27;26.60;99.90
18777;DHT22;9517;51.174;4.160;2023-07-20T13:37:54;27.20;99.90
18777;DHT22;9517;51.174;4.160;2023-07-20T13:40:23;27.70;99.90
18777;DHT22;9517;51.174;4.160;2023-07-20T13:42:50;27.30;99.90
18777;DHT22;9517;51.174;4.160;2023-07-20T13:45:17;27.40;99.90
18777;DHT22;9517;51.174;4.160;2023-07-20T13:47:44;27.40;99.90
18777;DHT22;9517;51.174;4.160;2023-07-20T13:50:11;27.20;99.90
18777;DHT22;9517;51.174;4.160;2023-07-20T13:52:38;26.70;99.90
18777;DHT22;9517;51.174;4.160;2023-07-20T13:55:05;25.90;99.90
18777;DHT22;9517;51.174;4.160;2023-07-20T13:57:34;25.70;99.90
18777;DHT22;9517;51.174;4.160;2023-07-20T14:00:01;25.40;99.90
18777;DHT22;9517;51.174;4.160;2023-07-20T14:02:29;25.30;99.90
18777;DHT22;9517;51.174;4.160;2023-07-20T14:04:56;25.20;99.90
18777;DHT22;9517;51.174;4.160;2023-07-20T14:07:24;25.20;99.90
18777;DHT22;9517;51.174;4.160;2023-07-20T14:09:51;25.10;99.90
18777;DHT22;9517;51.174;4.160;2023-07-20T14:12:18;24.80;99.90
18777;DHT22;9517;51.174;4.160;2023-07-20T14:14:46;25.00;99.90
18777;DHT22;9517;51.174;4.160;2023-07-20T14:17:13;24.80;99.90
18777;DHT22;9517;51.174;4.160;2023-07-20T14:19:40;24.50;99.90
18777;DHT22;9517;51.174;4.160;2023-07-20T14:22:07;24.10;99.90
18777;DHT22;9517;51.174;4.160;2023-07-20T14:24:35;24.00;99.90
18777;DHT22;9517;51.174;4.160;2023-07-20T14:27:02;24.10;99.90
18777;DHT22;9517;51.174;4.160;2023-07-20T14:29:29;23.50;99.90
18777;DHT22;9517;51.174;4.160;2023-07-20T14:31:58;23.30;99.90
18777;DHT22;9517;51.174;4.160;2023-07-20T14:34:25;23.40;99.90
18777;DHT22;9517;51.174;4.160;2023-07-20T14:36:53;23.30;99.90
18777;DHT22;9517;51.174;4.160;2023-07-20T14:39:20;23.70;99.90
18777;DHT22;9517;51.174;4.160;2023-07-20T14:41:49;23.60;99.90
18777;DHT22;9517;51.174;4.160;2023-07-20T14:44:16;23.20;99.90
18777;DHT22;9517;51.174;4.160;2023-07-20T14:46:43;22.80;99.90
18777;DHT22;9517;51.174;4.160;2023-07-20T14:49:12;22.20;99.90
18777;DHT22;9517;51.174;4.160;2023-07-20T14:51:39;22.00;99.90
18777;DHT22;9517;51.174;4.160;2023-07-20T14:54:09;21.80;99.90
18777;DHT22;9517;51.174;4.160;2023-07-20T14:56:38;21.50;99.90
18777;DHT22;9517;51.174;4.160;2023-07-20T14:59:06;21.10;99.90
18777;DHT22;9517;51.174;4.160;2023-07-20T15:01:33;21.00;99.90
18777;DHT22;9517;51.174;4.160;2023-07-20T15:04:00;21.00;99.90
18777;DHT22;9517;51.174;4.160;2023-07-20T15:06:29;21.00;99.90
18777;DHT22;9517;51.174;4.160;2023-07-20T15:08:56;21.10;99.90
18777;DHT22;9517;51.174;4.160;2023-07-20T15:11:24;21.30;99.90
18777;DHT22;9517;51.174;4.160;2023-07-20T15:13:51;21.30;99.90
18777;DHT22;9517;51.174;4.160;2023-07-20T15:16:18;21.20;99.90
18777;DHT22;9517;51.174;4.160;2023-07-20T15:18:45;21.30;99.90
18777;DHT22;9517;51.174;4.160;2023-07-20T15:21:12;20.80;99.90
18777;DHT22;9517;51.174;4.160;2023-07-20T15:23:40;20.20;99.90
18777;DHT22;9517;51.174;4.160;2023-07-20T15:26:07;19.80;99.90
18777;DHT22;9517;51.174;4.160;2023-07-20T15:28:34;19.60;99.90
18777;DHT22;9517;51.174;4.160;2023-07-20T15:31:02;19.60;99.90
18777;DHT22;9517;51.174;4.160;2023-07-20T15:33:30;19.50;99.90
18777;DHT22;9517;51.174;4.160;2023-07-20T15:35:58;19.60;99.90
18777;DHT22;9517;51.174;4.160;2023-07-20T15:38:25;19.70;99.90
18777;DHT22;9517;51.174;4.160;2023-07-20T15:40:54;19.60;99.90
18777;DHT22;9517;51.174;4.160;2023-07-20T15:43:23;19.50;99.90
18777;DHT22;9517;51.174;4.160;2023-07-20T15:45:50;19.50;99.90
18777;DHT22;9517;51.174;4.160;2023-07-20T15:48:17;19.30;99.90
18777;DHT22;9517;51.174;4.160;2023-07-20T15:50:46;19.40;99.90
18777;DHT22;9517;51.174;4.160;2023-07-20T15:53:13;19.30;99.90
18777;DHT22;9517;51.174;4.160;2023-07-20T15:55:40;19.40;99.90
18777;DHT22;9517;51.174;4.160;2023-07-20T15:58:09;19.30;99.90